Terminal Aerodrome Forecast
Issued by NWS Austin/San Antonio, TX

Home | Current Version | Previous Version | Text Only | Print | Product List | Glossary On
Versions: 1 2 3 4 5 6 7 8 9 10 11 12 13 14 15 16 17 18 19 20
810
FTUS44 KEWX 271720
TAFDRT
TAF
KDRT 271720Z 2718/2818 34006KT P6SM SCT030
     FM280800 12009KT P6SM OVC022
     FM281000 11009KT P6SM OVC007=

USA.gov is the U.S. government's official web portal to all federal, state and local government web resources and services.